createdAt,value
2019-01-18T00:00:03.654Z,1012.2
2019-01-18T00:01:03.024Z,1012.2
2019-01-18T00:02:03.844Z,1012.2
2019-01-18T00:03:03.186Z,1012.3
2019-01-18T00:04:03.247Z,1012.3
2019-01-18T00:05:03.463Z,1012.2
2019-01-18T00:06:03.309Z,1012.3
2019-01-18T00:07:03.960Z,1012.2
2019-01-18T00:08:03.553Z,1012.2
2019-01-18T00:09:02.869Z,1012.3
2019-01-18T00:10:01.978Z,1012.3
2019-01-18T00:11:03.052Z,1012.3
2019-01-18T00:12:02.572Z,1012.2
2019-01-18T00:13:03.721Z,1012.2
2019-01-18T00:14:03.132Z,1012.2
2019-01-18T00:15:03.311Z,1012.2
2019-01-18T00:16:03.428Z,1012.2
2019-01-18T00:17:03.249Z,1012.2
2019-01-18T00:18:03.892Z,1012.2
2019-01-18T00:19:03.680Z,1012.2
2019-01-18T00:20:03.135Z,1012.2
2019-01-18T00:21:02.825Z,1012.3
2019-01-18T00:22:03.645Z,1012.3
2019-01-18T00:23:03.073Z,1012.2
2019-01-18T00:24:03.713Z,1012.2
2019-01-18T00:25:03.633Z,1012.2
2019-01-18T00:26:03.562Z,1012.3
2019-01-18T00:27:03.560Z,1012.2
2019-01-18T00:28:03.295Z,1012.2
2019-01-18T00:29:02.874Z,1012.2
2019-01-18T00:30:02.493Z,1012.3
2019-01-18T00:31:03.883Z,1012.3
2019-01-18T00:32:03.542Z,1012.3
2019-01-18T00:33:03.373Z,1012.4
2019-01-18T00:34:02.094Z,1012.4
2019-01-18T00:35:02.726Z,1012.4
2019-01-18T00:36:03.184Z,1012.4
2019-01-18T00:37:03.336Z,1012.4
2019-01-18T00:38:03.716Z,1012.4
2019-01-18T00:39:03.819Z,1012.4
2019-01-18T00:40:03.664Z,1012.4
2019-01-18T00:41:03.595Z,1012.5
2019-01-18T00:42:03.838Z,1012.5
2019-01-18T00:43:03.513Z,1012.5
2019-01-18T00:44:03.360Z,1012.5
2019-01-18T00:45:03.203Z,1012.6
2019-01-18T00:46:02.941Z,1012.6
2019-01-18T00:47:03.797Z,1012.5
2019-01-18T00:48:03.118Z,1012.5
2019-01-18T00:49:03.776Z,1012.5
2019-01-18T00:50:03.097Z,1012.5
2019-01-18T00:51:02.960Z,1012.5
2019-01-18T00:52:03.549Z,1012.5
2019-01-18T00:53:03.203Z,1012.6
2019-01-18T00:54:03.204Z,1012.6
2019-01-18T00:55:03.588Z,1012.7
2019-01-18T00:56:03.309Z,1012.7
2019-01-18T00:57:03.008Z,1012.7
2019-01-18T00:58:03.360Z,1012.6
2019-01-18T00:59:03.762Z,1012.6
2019-01-18T01:00:03.655Z,1012.6
2019-01-18T01:01:03.590Z,1012.6
2019-01-18T01:02:03.205Z,1012.6
2019-01-18T01:03:02.910Z,1012.6
2019-01-18T01:04:03.859Z,1012.6
2019-01-18T01:05:03.364Z,1012.6
2019-01-18T01:06:03.939Z,1012.6
2019-01-18T01:07:02.938Z,1012.6
2019-01-18T01:08:02.984Z,1012.7
2019-01-18T01:09:03.723Z,1012.7
2019-01-18T01:10:02.620Z,1012.8
2019-01-18T01:11:03.148Z,1012.8
2019-01-18T01:12:02.121Z,1012.9
2019-01-18T01:13:02.952Z,1012.9
2019-01-18T01:14:03.340Z,1012.9
2019-01-18T01:15:03.859Z,1012.9
2019-01-18T01:16:02.920Z,1013
2019-01-18T01:17:03.692Z,1012.9
2019-01-18T01:18:03.263Z,1012.9
2019-01-18T01:19:03.635Z,1013
2019-01-18T01:20:03.330Z,1013
2019-01-18T01:21:03.097Z,1013
2019-01-18T01:22:03.762Z,1013
2019-01-18T01:23:03.796Z,1013
2019-01-18T01:24:03.565Z,1013
2019-01-18T01:25:03.304Z,1013
2019-01-18T01:26:03.078Z,1013
2019-01-18T01:27:03.669Z,1013
2019-01-18T01:28:03.119Z,1012.9
2019-01-18T01:29:03.103Z,1013.1
2019-01-18T01:30:03.771Z,1013.1
2019-01-18T01:31:03.473Z,1013
2019-01-18T01:32:02.332Z,1013
2019-01-18T01:33:02.699Z,1013
2019-01-18T01:34:03.399Z,1013
2019-01-18T01:35:03.904Z,1013
2019-01-18T01:36:03.650Z,1013
2019-01-18T01:37:03.070Z,1013
2019-01-18T01:38:03.873Z,1013
2019-01-18T01:39:03.104Z,1013.1
2019-01-18T01:40:03.322Z,1012.9
2019-01-18T01:41:03.658Z,1012.9
2019-01-18T01:42:02.993Z,1012.9
2019-01-18T01:43:03.650Z,1013
2019-01-18T01:44:02.980Z,1013
2019-01-18T01:45:04.835Z,1013
2019-01-18T01:46:03.578Z,1013
2019-01-18T01:47:03.547Z,1012.9
2019-01-18T01:48:03.227Z,1013.1
2019-01-18T01:49:03.092Z,1013
2019-01-18T01:50:03.946Z,1013.1
2019-01-18T01:51:03.334Z,1013.1
2019-01-18T01:52:03.248Z,1013
2019-01-18T01:53:02.281Z,1013.2
2019-01-18T01:54:03.715Z,1013.2
2019-01-18T01:55:03.640Z,1013.2
2019-01-18T01:56:03.557Z,1013.3
2019-01-18T01:57:03.284Z,1013.3
2019-01-18T01:58:03.761Z,1013.3
2019-01-18T01:59:03.363Z,1013.2
2019-01-18T02:00:03.046Z,1013.3
2019-01-18T02:01:03.618Z,1013.3
2019-01-18T02:02:03.089Z,1013.3
2019-01-18T02:03:03.532Z,1013.3
2019-01-18T02:04:02.848Z,1013.4
2019-01-18T02:05:03.776Z,1013.4
2019-01-18T02:06:03.158Z,1013.4
2019-01-18T02:07:03.350Z,1013.4
2019-01-18T02:08:03.512Z,1013.4
2019-01-18T02:09:02.855Z,1013.4
2019-01-18T02:10:03.316Z,1013.4
2019-01-18T02:11:03.459Z,1013.4
2019-01-18T02:12:03.840Z,1013.4
2019-01-18T02:13:03.292Z,1013.6
2019-01-18T02:14:03.932Z,1013.6
2019-01-18T02:15:03.841Z,1013.5
2019-01-18T02:16:03.221Z,1013.6
2019-01-18T02:17:03.921Z,1013.5
2019-01-18T02:18:03.838Z,1013.5
2019-01-18T02:19:03.625Z,1013.5
2019-01-18T02:20:03.433Z,1013.5
2019-01-18T02:21:03.264Z,1013.7
2019-01-18T02:22:03.439Z,1013.6
2019-01-18T02:23:03.202Z,1013.6
2019-01-18T02:24:03.335Z,1013.6
2019-01-18T02:25:02.974Z,1013.6
2019-01-18T02:26:03.568Z,1013.7
2019-01-18T02:27:03.283Z,1013.6
2019-01-18T02:28:03.999Z,1013.5
2019-01-18T02:29:02.231Z,1013.6
2019-01-18T02:30:03.005Z,1013.6
2019-01-18T02:31:02.919Z,1013.5
2019-01-18T02:32:03.496Z,1013.5
2019-01-18T02:33:03.413Z,1013.5
2019-01-18T02:34:03.115Z,1013.5
2019-01-18T02:35:03.610Z,1013.5
2019-01-18T02:36:03.722Z,1013.5
2019-01-18T02:37:03.611Z,1013.5
2019-01-18T02:38:02.931Z,1013.5
2019-01-18T02:39:03.434Z,1013.5
2019-01-18T02:40:03.346Z,1013.5
2019-01-18T02:41:03.269Z,1013.6
2019-01-18T02:42:05.200Z,1013.6
2019-01-18T02:43:04.353Z,1013.5
2019-01-18T02:44:03.635Z,1013.6
2019-01-18T02:45:03.402Z,1013.6
2019-01-18T02:46:03.455Z,1013.6
2019-01-18T02:47:03.373Z,1013.6
2019-01-18T02:48:03.332Z,1013.5
2019-01-18T02:49:03.268Z,1013.6
2019-01-18T02:50:03.953Z,1013.6
2019-01-18T02:51:02.423Z,1013.7
2019-01-18T02:52:03.619Z,1013.7
2019-01-18T02:53:03.207Z,1013.7
2019-01-18T02:54:03.185Z,1013.7
2019-01-18T02:55:03.205Z,1013.7
2019-01-18T02:56:03.356Z,1013.6
2019-01-18T02:57:02.993Z,1013.7
2019-01-18T02:58:03.699Z,1013.7
2019-01-18T02:59:03.495Z,1013.7
2019-01-18T03:00:05.697Z,1013.7
2019-01-18T03:01:03.923Z,1013.8
2019-01-18T03:02:03.585Z,1013.8
2019-01-18T03:03:03.198Z,1013.7
2019-01-18T03:04:03.031Z,1013.7
2019-01-18T03:05:03.047Z,1013.9
2019-01-18T03:06:03.337Z,1014
2019-01-18T03:07:03.093Z,1013.9
2019-01-18T03:08:03.705Z,1013.9
2019-01-18T03:09:03.433Z,1014
2019-01-18T03:10:03.073Z,1014
2019-01-18T03:11:03.734Z,1014
2019-01-18T03:12:03.478Z,1014.1
2019-01-18T03:13:03.336Z,1014
2019-01-18T03:14:03.162Z,1014
2019-01-18T03:15:02.845Z,1013.9
2019-01-18T03:16:03.571Z,1013.9
2019-01-18T03:17:02.435Z,1014
2019-01-18T03:18:03.173Z,1014
2019-01-18T03:19:03.038Z,1014.1
2019-01-18T03:20:02.231Z,1014
2019-01-18T03:21:02.651Z,1014
2019-01-18T03:22:02.986Z,1014
2019-01-18T03:23:03.995Z,1014.1
2019-01-18T03:24:03.742Z,1014.1
2019-01-18T03:25:03.565Z,1014.1
2019-01-18T03:26:03.764Z,1014.1
2019-01-18T03:27:03.275Z,1014.1
2019-01-18T03:28:03.366Z,1014.1
2019-01-18T03:29:03.321Z,1014
2019-01-18T03:30:03.488Z,1014.1
2019-01-18T03:31:03.041Z,1014.1
2019-01-18T03:32:03.699Z,1014
2019-01-18T03:33:03.432Z,1014.1
2019-01-18T03:34:02.767Z,1014.1
2019-01-18T03:35:03.216Z,1014.2
2019-01-18T03:36:02.964Z,1014.2
2019-01-18T03:37:03.277Z,1014.2
2019-01-18T03:38:03.074Z,1014.2
2019-01-18T03:39:04.048Z,1014.3
2019-01-18T03:40:03.396Z,1014.3
2019-01-18T03:41:03.421Z,1014.5
2019-01-18T03:42:03.391Z,1014.6
2019-01-18T03:43:03.173Z,1014.6
2019-01-18T03:44:03.189Z,1014.5
2019-01-18T03:45:03.808Z,1014.5
2019-01-18T03:46:03.580Z,1014.5
2019-01-18T03:47:03.533Z,1014.5
2019-01-18T03:48:03.529Z,1014.6
2019-01-18T03:49:02.969Z,1014.6
2019-01-18T03:50:03.696Z,1014.6
2019-01-18T03:51:03.956Z,1014.6
2019-01-18T03:52:03.579Z,1014.6
2019-01-18T03:53:03.695Z,1014.5
2019-01-18T03:54:03.375Z,1014.5
2019-01-18T03:55:04.024Z,1014.5
2019-01-18T03:56:03.231Z,1014.6
2019-01-18T03:57:03.812Z,1014.5
2019-01-18T03:58:03.380Z,1014.5
2019-01-18T03:59:03.282Z,1014.7
2019-01-18T04:00:03.262Z,1014.6
2019-01-18T04:01:03.193Z,1014.6
2019-01-18T04:02:02.147Z,1014.6
2019-01-18T04:03:03.674Z,1014.6
2019-01-18T04:04:02.523Z,1014.6
2019-01-18T04:05:03.293Z,1014.5
2019-01-18T04:06:03.852Z,1014.5
2019-01-18T04:07:02.568Z,1014.5
2019-01-18T04:08:03.789Z,1014.5
2019-01-18T04:09:03.929Z,1014.5
2019-01-18T04:10:03.653Z,1014.5
2019-01-18T04:11:03.091Z,1014.6
2019-01-18T04:12:03.782Z,1014.7
2019-01-18T04:13:03.301Z,1014.7
2019-01-18T04:14:03.886Z,1014.8
2019-01-18T04:15:03.174Z,1014.7
2019-01-18T04:16:02.874Z,1014.8
2019-01-18T04:17:03.502Z,1014.9
2019-01-18T04:18:03.150Z,1014.8
2019-01-18T04:19:03.490Z,1014.8
2019-01-18T04:20:03.148Z,1014.8
2019-01-18T04:21:03.126Z,1014.7
2019-01-18T04:22:03.053Z,1014.8
2019-01-18T04:23:03.354Z,1014.7
2019-01-18T04:24:03.819Z,1014.7
2019-01-18T04:25:03.775Z,1014.8
2019-01-18T04:26:03.495Z,1014.8
2019-01-18T04:27:03.419Z,1014.7
2019-01-18T04:28:03.163Z,1014.9
2019-01-18T04:29:03.584Z,1014.9
2019-01-18T04:30:03.707Z,1014.9
2019-01-18T04:31:02.511Z,1014.9
2019-01-18T04:32:02.368Z,1014.9
2019-01-18T04:33:03.577Z,1014.9
2019-01-18T04:34:02.213Z,1014.8
2019-01-18T04:35:03.866Z,1014.9
2019-01-18T04:36:03.432Z,1015
2019-01-18T04:37:02.602Z,1015.1
2019-01-18T04:38:03.029Z,1015
2019-01-18T04:39:03.326Z,1015
2019-01-18T04:40:03.206Z,1015
2019-01-18T04:41:03.851Z,1015
2019-01-18T04:42:03.449Z,1015
2019-01-18T04:43:03.515Z,1015.1
2019-01-18T04:44:03.458Z,1015.1
2019-01-18T04:45:02.895Z,1015.1
2019-01-18T04:46:03.240Z,1015.1
2019-01-18T04:47:03.202Z,1015.2
2019-01-18T04:48:03.116Z,1015.2
2019-01-18T04:49:03.501Z,1015.2
2019-01-18T04:50:03.256Z,1015.2
2019-01-18T04:51:03.048Z,1015.3
2019-01-18T04:52:03.729Z,1015.3
2019-01-18T04:53:03.834Z,1015.3
2019-01-18T04:54:03.092Z,1015.3
2019-01-18T04:55:03.823Z,1015.3
2019-01-18T04:56:02.453Z,1015.3
2019-01-18T04:57:03.801Z,1015.4
2019-01-18T04:58:03.804Z,1015.3
2019-01-18T04:59:03.421Z,1015.4
2019-01-18T05:00:03.685Z,1015.4
2019-01-18T05:01:03.606Z,1015.5
2019-01-18T05:02:03.914Z,1015.5
2019-01-18T05:03:03.267Z,1015.5
2019-01-18T05:04:03.162Z,1015.4
2019-01-18T05:05:03.424Z,1015.5
2019-01-18T05:06:03.420Z,1015.4
2019-01-18T05:07:03.103Z,1015.5
2019-01-18T05:08:03.438Z,1015.5
2019-01-18T05:09:03.445Z,1015.5
2019-01-18T05:10:04.009Z,1015.5
2019-01-18T05:11:03.552Z,1015.6
2019-01-18T05:12:03.616Z,1015.6
2019-01-18T05:13:03.223Z,1015.5
2019-01-18T05:14:03.232Z,1015.5
2019-01-18T05:15:03.960Z,1015.6
2019-01-18T05:16:03.668Z,1015.6
2019-01-18T05:17:02.950Z,1015.6
2019-01-18T05:18:03.039Z,1015.6
2019-01-18T05:19:03.781Z,1015.7
2019-01-18T05:20:03.454Z,1015.7
2019-01-18T05:21:03.682Z,1015.7
2019-01-18T05:22:03.190Z,1015.7
2019-01-18T05:23:03.030Z,1015.7
2019-01-18T05:24:02.924Z,1015.9
2019-01-18T05:25:04.555Z,1015.9
2019-01-18T05:26:02.859Z,1015.9
2019-01-18T05:27:03.070Z,1016
2019-01-18T05:28:03.285Z,1015.9
2019-01-18T05:29:03.425Z,1016
2019-01-18T05:30:03.567Z,1016
2019-01-18T05:31:02.290Z,1016
2019-01-18T05:32:01.945Z,1016
2019-01-18T05:33:03.737Z,1016
2019-01-18T05:34:03.735Z,1016.2
2019-01-18T05:35:04.023Z,1016
2019-01-18T05:36:03.921Z,1016.2
2019-01-18T05:37:03.512Z,1016.1
2019-01-18T05:38:03.365Z,1016.2
2019-01-18T05:39:03.371Z,1016.2
2019-01-18T05:40:03.347Z,1016.2
2019-01-18T05:41:03.175Z,1016.2
2019-01-18T05:42:03.573Z,1016.3
2019-01-18T05:43:03.267Z,1016.3
2019-01-18T05:44:03.910Z,1016.4
2019-01-18T05:45:03.141Z,1016.4
2019-01-18T05:46:03.281Z,1016.4
2019-01-18T05:47:02.906Z,1016.4
2019-01-18T05:48:03.108Z,1016.5
2019-01-18T05:49:03.660Z,1016.5
2019-01-18T05:50:03.161Z,1016.5
2019-01-18T05:51:02.926Z,1016.6
2019-01-18T05:52:02.955Z,1016.6
2019-01-18T05:53:03.908Z,1016.6
2019-01-18T05:54:03.832Z,1016.6
2019-01-18T05:55:03.729Z,1016.6
2019-01-18T05:56:03.390Z,1016.6
2019-01-18T05:57:03.313Z,1016.6
2019-01-18T05:58:03.318Z,1016.6
2019-01-18T05:59:03.061Z,1016.6
2019-01-18T06:00:03.795Z,1016.6
2019-01-18T06:01:03.173Z,1016.6
2019-01-18T06:02:03.076Z,1016.6
2019-01-18T06:03:03.232Z,1016.7
2019-01-18T06:04:03.180Z,1016.7
2019-01-18T06:05:02.570Z,1016.7
2019-01-18T06:06:03.242Z,1016.6
2019-01-18T06:07:02.730Z,1016.7
2019-01-18T06:08:03.691Z,1016.7
2019-01-18T06:09:03.050Z,1016.8
2019-01-18T06:10:03.673Z,1016.8
2019-01-18T06:11:03.160Z,1016.8
2019-01-18T06:12:03.270Z,1016.8
2019-01-18T06:13:03.923Z,1016.9
2019-01-18T06:14:03.419Z,1016.9
2019-01-18T06:15:03.763Z,1016.9
2019-01-18T06:16:03.622Z,1016.9
2019-01-18T06:17:03.040Z,1016.9
2019-01-18T06:18:03.485Z,1016.9
2019-01-18T06:19:03.728Z,1017
2019-01-18T06:20:03.923Z,1017
2019-01-18T06:21:02.910Z,1017
2019-01-18T06:22:03.198Z,1017
2019-01-18T06:23:03.315Z,1017.1
2019-01-18T06:24:03.139Z,1017.1
2019-01-18T06:25:03.373Z,1017
2019-01-18T06:26:03.289Z,1017
2019-01-18T06:27:03.272Z,1017.2
2019-01-18T06:28:03.771Z,1017.2
2019-01-18T06:29:03.001Z,1017.3
2019-01-18T06:30:03.535Z,1017.3
2019-01-18T06:31:03.242Z,1017.2
2019-01-18T06:32:03.739Z,1017.3
2019-01-18T06:33:02.915Z,1017.4
2019-01-18T06:34:03.567Z,1017.3
2019-01-18T06:35:03.235Z,1017.4
2019-01-18T06:36:03.371Z,1017.5
2019-01-18T06:37:03.740Z,1017.5
2019-01-18T06:38:03.574Z,1017.5
2019-01-18T06:39:03.316Z,1017.4
2019-01-18T06:40:03.019Z,1017.5
2019-01-18T06:41:03.097Z,1017.4
2019-01-18T06:42:03.579Z,1017.4
2019-01-18T06:43:03.015Z,1017.5
2019-01-18T06:44:03.394Z,1017.5
2019-01-18T06:45:03.253Z,1017.6
2019-01-18T06:46:03.980Z,1017.6
2019-01-18T06:47:03.599Z,1017.6
2019-01-18T06:48:03.333Z,1017.6
2019-01-18T06:49:03.935Z,1017.6
2019-01-18T06:50:03.425Z,1017.5
2019-01-18T06:51:03.087Z,1017.6
2019-01-18T06:52:02.966Z,1017.7
2019-01-18T06:53:03.106Z,1017.7
2019-01-18T06:54:02.424Z,1017.7
2019-01-18T06:55:03.614Z,1017.8
2019-01-18T06:56:03.058Z,1017.8
2019-01-18T06:57:03.172Z,1017.8
2019-01-18T06:58:02.971Z,1017.8
2019-01-18T06:59:02.109Z,1017.8
2019-01-18T07:00:03.343Z,1017.9
2019-01-18T07:01:09.035Z,1017.9
2019-01-18T07:02:03.666Z,1018
2019-01-18T07:03:03.313Z,1018
2019-01-18T07:04:03.062Z,1018.1
2019-01-18T07:05:03.834Z,1018.1
2019-01-18T07:06:03.375Z,1018.1
2019-01-18T07:07:03.724Z,1018.2
2019-01-18T07:08:03.310Z,1018.2
2019-01-18T07:09:03.302Z,1018.3
2019-01-18T07:10:03.899Z,1018.3
2019-01-18T07:11:03.613Z,1018.3
2019-01-18T07:12:03.261Z,1018.3
2019-01-18T07:13:02.987Z,1018.3
2019-01-18T07:14:03.317Z,1018.3
2019-01-18T07:15:03.271Z,1018.4
2019-01-18T07:16:03.294Z,1018.3
2019-01-18T07:17:02.901Z,1018.3
2019-01-18T07:18:03.453Z,1018.3
2019-01-18T07:19:02.533Z,1018.4
2019-01-18T07:20:03.555Z,1018.4
2019-01-18T07:21:03.244Z,1018.4
2019-01-18T07:22:03.739Z,1018.4
2019-01-18T07:23:03.231Z,1018.4
2019-01-18T07:24:03.366Z,1018.5
2019-01-18T07:25:02.959Z,1018.4
2019-01-18T07:26:03.292Z,1018.5
2019-01-18T07:27:03.525Z,1018.5
2019-01-18T07:28:03.042Z,1018.5
2019-01-18T07:29:03.783Z,1018.6
2019-01-18T07:30:03.342Z,1018.6
2019-01-18T07:31:03.326Z,1018.6
2019-01-18T07:32:03.806Z,1018.7
2019-01-18T07:33:03.812Z,1018.6
2019-01-18T07:34:03.460Z,1018.6
2019-01-18T07:35:03.369Z,1018.6
2019-01-18T07:36:03.381Z,1018.6
2019-01-18T07:37:02.968Z,1018.6
2019-01-18T07:38:03.059Z,1018.6
2019-01-18T07:39:03.696Z,1018.8
2019-01-18T07:40:03.379Z,1018.7
2019-01-18T07:41:02.899Z,1018.7
2019-01-18T07:42:03.362Z,1018.6
2019-01-18T07:43:02.176Z,1018.6
2019-01-18T07:44:02.160Z,1018.6
2019-01-18T07:45:03.225Z,1018.7
2019-01-18T07:46:03.194Z,1018.7
2019-01-18T07:47:03.647Z,1018.7
2019-01-18T07:48:04.192Z,1018.8
2019-01-18T07:49:02.280Z,1018.8
2019-01-18T07:50:03.925Z,1018.8
2019-01-18T07:51:03.044Z,1018.8
2019-01-18T07:52:03.794Z,1018.8
2019-01-18T07:53:03.371Z,1018.8
2019-01-18T07:54:03.601Z,1018.8
2019-01-18T07:55:03.725Z,1018.8
2019-01-18T07:56:03.329Z,1018.8
2019-01-18T07:57:03.930Z,1018.8
2019-01-18T07:58:03.446Z,1018.9
2019-01-18T07:59:03.047Z,1018.9
2019-01-18T08:00:03.379Z,1018.8
2019-01-18T08:01:03.095Z,1018.8
2019-01-18T08:02:03.489Z,1018.9
2019-01-18T08:03:03.304Z,1018.9
2019-01-18T08:04:03.473Z,1018.9
2019-01-18T08:05:03.177Z,1018.9
2019-01-18T08:06:03.497Z,1018.9
2019-01-18T08:07:03.600Z,1018.9
2019-01-18T08:08:03.553Z,1019
2019-01-18T08:09:03.825Z,1019
2019-01-18T08:10:03.653Z,1019
2019-01-18T08:11:03.558Z,1019.1
2019-01-18T08:12:03.446Z,1019.1
2019-01-18T08:13:03.860Z,1019.1
2019-01-18T08:14:03.569Z,1019.1
2019-01-18T08:15:03.299Z,1019.1
2019-01-18T08:16:03.358Z,1019.1
2019-01-18T08:17:03.087Z,1019.1
2019-01-18T08:18:03.394Z,1019.2
2019-01-18T08:19:03.112Z,1019.2
2019-01-18T08:20:03.529Z,1019.2
2019-01-18T08:21:03.282Z,1019.2
2019-01-18T08:22:03.018Z,1019.3
2019-01-18T08:23:03.791Z,1019.3
2019-01-18T08:24:03.362Z,1019.2
2019-01-18T08:25:04.047Z,1019.2
2019-01-18T08:26:03.695Z,1019.3
2019-01-18T08:27:03.155Z,1019.3
2019-01-18T08:28:03.654Z,1019.3
2019-01-18T08:29:03.581Z,1019.3
2019-01-18T08:30:03.770Z,1019.4
2019-01-18T08:31:03.047Z,1019.5
2019-01-18T08:32:01.934Z,1019.4
2019-01-18T08:33:03.605Z,1019.4
2019-01-18T08:34:03.064Z,1019.5
2019-01-18T08:35:02.618Z,1019.4
2019-01-18T08:36:03.774Z,1019.5
2019-01-18T08:37:03.647Z,1019.5
2019-01-18T08:38:03.538Z,1019.6
2019-01-18T08:39:03.219Z,1019.6
2019-01-18T08:40:03.333Z,1019.5
2019-01-18T08:41:02.979Z,1019.5
2019-01-18T08:42:03.633Z,1019.6
2019-01-18T08:43:03.843Z,1019.6
2019-01-18T08:44:03.492Z,1019.6
2019-01-18T08:45:03.374Z,1019.6
2019-01-18T08:46:03.154Z,1019.6
2019-01-18T08:47:03.042Z,1019.7
2019-01-18T08:48:02.856Z,1019.6
2019-01-18T08:49:03.398Z,1019.7
2019-01-18T08:50:03.630Z,1019.7
2019-01-18T08:51:04.200Z,1019.6
2019-01-18T08:52:03.585Z,1019.6
2019-01-18T08:53:03.152Z,1019.7
2019-01-18T08:54:03.060Z,1019.7
2019-01-18T08:55:03.078Z,1019.7
2019-01-18T08:56:03.386Z,1019.8
2019-01-18T08:57:02.981Z,1019.8
2019-01-18T08:58:03.156Z,1019.7
2019-01-18T08:59:03.012Z,1019.7
2019-01-18T09:00:03.251Z,1019.9
2019-01-18T09:01:03.024Z,1019.9
2019-01-18T09:02:03.447Z,1019.8
2019-01-18T09:03:03.749Z,1019.9
2019-01-18T09:04:02.429Z,1019.8
2019-01-18T09:05:02.804Z,1019.9
2019-01-18T09:06:03.916Z,1019.8
2019-01-18T09:07:03.565Z,1019.8
2019-01-18T09:08:03.603Z,1019.9
2019-01-18T09:09:03.283Z,1019.9
2019-01-18T09:10:03.521Z,1019.9
2019-01-18T09:11:03.329Z,1019.8
2019-01-18T09:12:03.469Z,1019.8
2019-01-18T09:13:03.034Z,1019.9
2019-01-18T09:14:03.098Z,1020
2019-01-18T09:15:02.980Z,1020
2019-01-18T09:16:03.859Z,1019.9
2019-01-18T09:17:03.533Z,1019.9
2019-01-18T09:18:02.998Z,1019.9
2019-01-18T09:19:03.539Z,1019.9
2019-01-18T09:20:03.892Z,1019.9
2019-01-18T09:21:03.707Z,1019.9
2019-01-18T09:22:03.787Z,1019.9
2019-01-18T09:23:03.258Z,1020
2019-01-18T09:24:03.301Z,1020
2019-01-18T09:25:03.130Z,1020
2019-01-18T09:26:03.396Z,1020
2019-01-18T09:27:03.060Z,1019.9
2019-01-18T09:28:03.662Z,1019.9
2019-01-18T09:29:03.843Z,1019.9
2019-01-18T09:30:03.167Z,1020
2019-01-18T09:31:03.882Z,1020
2019-01-18T09:32:03.568Z,1020
2019-01-18T09:33:03.337Z,1020
2019-01-18T09:34:03.586Z,1020.1
2019-01-18T09:35:03.548Z,1020.1
2019-01-18T09:36:03.564Z,1020.1
2019-01-18T09:37:03.428Z,1020.1
2019-01-18T09:38:02.855Z,1020.1
2019-01-18T09:39:03.295Z,1020.1
2019-01-18T09:40:03.799Z,1020.1
2019-01-18T09:41:03.448Z,1020.1
2019-01-18T09:42:03.837Z,1020.2
2019-01-18T09:43:03.648Z,1020.2
2019-01-18T09:44:03.180Z,1020.2
2019-01-18T09:45:03.294Z,1020.2
2019-01-18T09:46:03.063Z,1020.2
2019-01-18T09:47:03.566Z,1020.2
2019-01-18T09:48:03.582Z,1020.2
2019-01-18T09:49:03.545Z,1020.2
2019-01-18T09:50:03.226Z,1020.2
2019-01-18T09:51:02.995Z,1020.2
2019-01-18T09:52:03.214Z,1020.1
2019-01-18T09:53:03.749Z,1020.2
2019-01-18T09:54:02.941Z,1020.2
2019-01-18T09:55:03.871Z,1020.2
2019-01-18T09:56:03.152Z,1020.1
2019-01-18T09:57:02.041Z,1020.2
2019-01-18T09:58:03.761Z,1020.1
2019-01-18T09:59:03.659Z,1020.1
2019-01-18T10:00:03.123Z,1020.1
2019-01-18T10:01:03.495Z,1020.2
2019-01-18T10:02:03.180Z,1020.2
2019-01-18T10:03:02.924Z,1020.2
2019-01-18T10:04:03.444Z,1020.2
2019-01-18T10:05:03.330Z,1020.2
2019-01-18T10:06:03.057Z,1020.1
2019-01-18T10:07:03.746Z,1020.1
2019-01-18T10:08:03.521Z,1020.2
2019-01-18T10:09:03.098Z,1020.1
2019-01-18T10:10:03.893Z,1020.2
2019-01-18T10:11:03.451Z,1020.2
2019-01-18T10:12:03.448Z,1020.1
2019-01-18T10:13:03.540Z,1020.1
2019-01-18T10:14:03.184Z,1020.2
2019-01-18T10:15:03.932Z,1020.2
2019-01-18T10:16:03.618Z,1020.2
2019-01-18T10:17:03.866Z,1020.2
2019-01-18T10:18:03.398Z,1020.3
2019-01-18T10:19:03.118Z,1020.3
2019-01-18T10:20:02.238Z,1020.3
2019-01-18T10:21:03.145Z,1020.2
2019-01-18T10:22:03.767Z,1020.2
2019-01-18T10:23:03.388Z,1020.2
2019-01-18T10:24:02.936Z,1020.3
2019-01-18T10:25:03.358Z,1020.2
2019-01-18T10:26:03.065Z,1020.2
2019-01-18T10:27:03.855Z,1020.2
2019-01-18T10:28:03.321Z,1020.2
2019-01-18T10:29:03.298Z,1020.3
2019-01-18T10:30:03.160Z,1020.3
2019-01-18T10:31:03.593Z,1020.2
2019-01-18T10:32:03.052Z,1020.1
2019-01-18T10:33:03.630Z,1020
2019-01-18T10:34:03.624Z,1020.1
2019-01-18T10:35:03.253Z,1020.2
2019-01-18T10:36:03.057Z,1020.2
2019-01-18T10:37:03.892Z,1020.1
2019-01-18T10:38:03.517Z,1020.1
2019-01-18T10:39:03.987Z,1020
2019-01-18T10:40:03.575Z,1020
2019-01-18T10:41:02.901Z,1020.1
2019-01-18T10:42:02.985Z,1020
2019-01-18T10:43:03.211Z,1019.9
2019-01-18T10:44:06.581Z,1019.9
2019-01-18T10:45:03.677Z,1020
2019-01-18T10:46:03.829Z,1020
2019-01-18T10:47:03.414Z,1020
2019-01-18T10:48:04.125Z,1019.9
2019-01-18T10:49:03.617Z,1019.9
2019-01-18T10:50:03.917Z,1019.9
2019-01-18T10:51:03.667Z,1019.9
2019-01-18T10:52:03.095Z,1020
2019-01-18T10:53:03.065Z,1020
2019-01-18T10:54:03.772Z,1019.9
2019-01-18T10:55:03.768Z,1020
2019-01-18T10:56:02.775Z,1019.9
2019-01-18T10:57:03.830Z,1019.9
2019-01-18T10:58:02.468Z,1019.9
2019-01-18T10:59:02.685Z,1019.9
2019-01-18T11:00:03.623Z,1020
2019-01-18T11:01:03.475Z,1020
2019-01-18T11:02:07.770Z,1020
2019-01-18T11:03:03.566Z,1019.9
2019-01-18T11:04:02.994Z,1020
2019-01-18T11:05:02.941Z,1020
2019-01-18T11:06:03.009Z,1020
2019-01-18T11:07:03.187Z,1019.9
2019-01-18T11:08:03.144Z,1020
2019-01-18T11:09:03.853Z,1020
2019-01-18T11:10:03.316Z,1019.9
2019-01-18T11:11:03.258Z,1019.9
2019-01-18T11:12:02.935Z,1019.9
2019-01-18T11:13:03.625Z,1019.9
2019-01-18T11:14:03.027Z,1019.9
2019-01-18T11:15:03.723Z,1019.9
2019-01-18T11:16:03.092Z,1020
2019-01-18T11:17:04.004Z,1020
2019-01-18T11:18:03.807Z,1019.9
2019-01-18T11:19:03.479Z,1019.9
2019-01-18T11:20:03.501Z,1019.9
2019-01-18T11:21:03.109Z,1019.9
2019-01-18T11:22:03.598Z,1019.9
2019-01-18T11:23:02.541Z,1019.9
2019-01-18T11:24:03.167Z,1019.7
2019-01-18T11:25:03.164Z,1019.7
2019-01-18T11:26:03.624Z,1019.8
2019-01-18T11:27:03.540Z,1019.8
2019-01-18T11:28:03.280Z,1019.9
2019-01-18T11:29:03.883Z,1019.9
2019-01-18T11:30:03.191Z,1019.9
2019-01-18T11:31:03.139Z,1019.7
2019-01-18T11:32:03.445Z,1019.7
2019-01-18T11:33:03.789Z,1019.7
2019-01-18T11:34:03.112Z,1019.9
2019-01-18T11:35:03.985Z,1019.9
2019-01-18T11:36:03.719Z,1019.6
2019-01-18T11:37:03.899Z,1019.6
2019-01-18T11:38:03.043Z,1019.7
2019-01-18T11:39:03.633Z,1019.7
2019-01-18T11:40:03.614Z,1019.7
2019-01-18T11:41:03.385Z,1019.7
2019-01-18T11:42:05.757Z,1019.7
2019-01-18T11:43:03.157Z,1019.7
2019-01-18T11:44:03.645Z,1019.6
2019-01-18T11:45:02.340Z,1019.7
2019-01-18T11:46:03.514Z,1019.6
2019-01-18T11:47:03.053Z,1019.7
2019-01-18T11:48:03.693Z,1019.6
2019-01-18T11:49:03.341Z,1019.6
2019-01-18T11:50:03.697Z,1019.7
2019-01-18T11:51:03.793Z,1019.7
2019-01-18T11:52:03.045Z,1019.8
2019-01-18T11:53:03.130Z,1019.8
2019-01-18T11:54:03.761Z,1019.8
2019-01-18T11:55:03.313Z,1020
2019-01-18T11:56:03.085Z,1020
2019-01-18T11:57:03.771Z,1020
2019-01-18T11:58:02.984Z,1020
2019-01-18T11:59:03.161Z,1020
2019-01-18T12:00:03.377Z,1020
2019-01-18T12:01:03.582Z,1020
2019-01-18T12:02:03.014Z,1020.1
2019-01-18T12:03:03.823Z,1020.1
2019-01-18T12:04:03.292Z,1020.3
2019-01-18T12:05:02.990Z,1020.3
2019-01-18T12:06:03.186Z,1020.3
2019-01-18T12:07:03.304Z,1020.3
2019-01-18T12:08:03.017Z,1020.2
2019-01-18T12:09:03.128Z,1020.4
2019-01-18T12:10:03.787Z,1020.4
2019-01-18T12:11:03.698Z,1020.4
2019-01-18T12:12:03.027Z,1020.5
2019-01-18T12:13:03.007Z,1020.5
2019-01-18T12:14:03.542Z,1020.4
2019-01-18T12:15:02.179Z,1020.5
2019-01-18T12:16:04.368Z,1020.5
2019-01-18T12:17:03.601Z,1020.5
2019-01-18T12:18:03.671Z,1020.6
2019-01-18T12:19:02.954Z,1020.6
2019-01-18T12:20:03.066Z,1020.6
2019-01-18T12:21:03.059Z,1020.6
2019-01-18T12:22:03.053Z,1020.6
2019-01-18T12:23:03.022Z,1020.5
2019-01-18T12:24:03.822Z,1020.5
2019-01-18T12:25:03.641Z,1020.5
2019-01-18T12:26:03.894Z,1020.6
2019-01-18T12:27:03.757Z,1020.6
2019-01-18T12:28:03.211Z,1020.5
2019-01-18T12:29:03.496Z,1020.5
2019-01-18T12:30:04.014Z,1020.5
2019-01-18T12:31:03.196Z,1020.5
2019-01-18T12:32:03.552Z,1020.5
2019-01-18T12:33:03.113Z,1020.5
2019-01-18T12:34:03.159Z,1020.6